Flight Track Log - Related Links

Times and Time Zones

All times are in EDT time to prevent confusion due to time zone crossing. See the EJA922 flight status page for this flight to view local times or setup timezone preferences in your user account.

Time Position Orientation Groundspeed Altitude Reporting Facility
EDT Latitude Longitude Course Direction KTS MPH feet Rate Location/Type
Tue 10:07:38 AM 36.9056 -76.1894 81° East 190 219 800  Level Washington Center
Tue 10:08:51 AM 36.9142 -76.1244 81° East 220 253 4,900 3,269 Climbing Washington Center
Tue 10:09:52 AM 36.8558 -76.1525 201° Southwest 245 282 8,100 2,826 Climbing Washington Center
Tue 10:10:52 AM 36.7950 -76.1989 211° Southwest 285 328 10,600 1,983 Climbing Washington Center
Tue 10:11:53 AM 36.7133 -76.2578 210° Southwest 356 410 12,100 1,756 Climbing Washington Center
Tue 10:12:55 AM 36.6275 -76.3192 210° Southwest 361 415 14,200 2,015 Climbing Washington Center
Tue 10:14:04 AM 36.5331 -76.3856 209° Southwest 390 449 16,500 1,795 Climbing Washington Center
Tue 10:15:02 AM 36.4431 -76.4492 210° Southwest 385 443 18,000 1,600 Climbing Washington Center
Tue 10:16:04 AM 36.3425 -76.5047 204° Southwest 385 443 19,700 1,600 Climbing Washington Center
Tue 10:17:02 AM 36.2378 -76.5603 203° Southwest 396 456 21,200 1,576 Climbing Washington Center
Tue 10:18:02 AM 36.1328 -76.6181 204° Southwest 409 471 22,800 1,587 Climbing Washington Center
Tue 10:19:03 AM 36.0258 -76.6758 204° Southwest 414 476 24,400 1,388 Climbing Washington Center
Tue 10:20:03 AM 35.9189 -76.7333 204° Southwest 422 486 25,600 1,190 Climbing Washington Center
Tue 10:21:04 AM 35.8119 -76.8036 208° Southwest 427 491 26,800 992 Climbing Washington Center
Tue 10:22:04 AM 35.7233 -76.9044 223° Southwest 432 497 27,600 1,068 Climbing Washington Center
Tue 10:23:02 AM 35.6281 -77.0256 226° Southwest 444 511 28,900 1,261 Climbing Washington Center
Tue 10:24:03 AM 35.5328 -77.1311 222° Southwest 450 518 30,100 1,140 Climbing Washington Center
Tue 10:25:03 AM 35.4375 -77.2414 223° Southwest 463 533 31,200 1,339 Climbing Washington Center
Tue 10:26:04 AM 35.3442 -77.3492 223° Southwest 468 539 32,800 1,916 Climbing Washington Center
Tue 10:27:02 AM 35.2464 -77.4589 223° Southwest 474 545 35,000 1,613 Climbing Washington Center
Tue 10:28:03 AM 35.1550 -77.5658 224° Southwest 474 545 36,000 1,426 Climbing Washington Center
Tue 10:29:04 AM 35.0550 -77.6753 222° Southwest 474 545 37,900 1,815 Climbing Washington Center
Tue 10:30:02 AM 34.9614 -77.7842 224° Southwest 474 545 39,600 1,068 Climbing Washington Center
Tue 10:31:02 AM 34.8589 -77.8978 222° Southwest 474 545 40,000 198 Climbing Washington Center
Tue 10:32:03 AM 34.7564 -78.0214 225° Southwest 490 564 40,000  Level Washington Center
Tue 10:33:04 AM 34.6475 -78.1419 222° Southwest 516 594 40,000  Level Washington Center
Tue 10:35:09 AM 34.4097 -78.4078 223° Southwest 547 629 40,000  Level Jacksonville Center
Tue 10:36:09 AM 34.2992 -78.5292 222° Southwest 547 629 40,000  Level Jacksonville Center
Tue 10:37:09 AM 34.1864 -78.6503 222° Southwest 547 629 40,000  Level Jacksonville Center
Tue 10:38:09 AM 34.0758 -78.7736 223° Southwest 547 629 40,000  Level Jacksonville Center
Tue 10:39:09 AM 33.9628 -78.8939 221° Southwest 547 629 40,000  Level Jacksonville Center
Tue 10:40:09 AM 33.8519 -79.0142 222° Southwest 547 629 40,000  Level Jacksonville Center
Tue 10:41:09 AM 33.7389 -79.1364 222° Southwest 547 629 40,000  Level Jacksonville Center
Tue 10:42:09 AM 33.6458 -79.2375 222° Southwest 536 617 40,000  Level Jacksonville Center
Tue 10:43:09 AM 33.5344 -79.3569 222° Southwest 536 617 40,000  Level Jacksonville Center
Tue 10:44:09 AM 33.4228 -79.4758 222° Southwest 536 617 40,000  Level Jacksonville Center
Tue 10:45:09 AM 33.3092 -79.5969 222° Southwest 541 623 40,000  Level Jacksonville Center
Tue 10:46:09 AM 33.1975 -79.7153 222° Southwest 546 628 40,000  Level Jacksonville Center
Tue 10:47:09 AM 33.0814 -79.8358 221° Southwest 546 628 40,000  Level Jacksonville Center
Tue 10:48:09 AM 32.9675 -79.9561 222° Southwest 546 628 40,000  Level Jacksonville Center
Tue 10:49:09 AM 32.8325 -80.0817 218° Southwest 551 634 40,000  Level Jacksonville Center
Tue 10:50:09 AM 32.7011 -80.1794 212° Southwest 556 640 40,000  Level Jacksonville Center
Tue 10:51:09 AM 32.5675 -80.2772 212° Southwest 561 646 40,000  Level Jacksonville Center
Tue 10:52:09 AM 32.4358 -80.3769 213° Southwest 566 651 40,000  Level Jacksonville Center
Tue 10:53:09 AM 32.3061 -80.4714 212° Southwest 551 634 40,000  Level Jacksonville Center
Tue 10:54:09 AM 32.1722 -80.5683 212° Southwest 561 646 40,000  Level Jacksonville Center
Tue 10:55:09 AM 32.0447 -80.6622 212° Southwest 555 639 40,000  Level Jacksonville Center
Tue 10:56:09 AM 31.9250 -80.7458 211° Southwest 560 644 40,000  Level Jacksonville Center
Tue 10:57:09 AM 31.7786 -80.8544 212° Southwest 565 650 40,000  Level Jacksonville Center
Tue 10:58:09 AM 31.6422 -80.9475 210° Southwest 565 650 40,000  Level Jacksonville Center
Tue 10:59:09 AM 31.5114 -81.0039 200° South 557 641 40,000  Level Jacksonville Center
Tue 11:00:09 AM 31.3575 -81.0339 189° South 557 641 40,000  Level Jacksonville Center
Tue 11:01:09 AM 31.1992 -81.0636 189° South 570 656 40,000  Level Jacksonville Center
Tue 11:02:09 AM 31.0431 -81.0861 187° South 570 656 40,000  Level Jacksonville Center
Tue 11:03:09 AM 30.8889 -81.1108 188° South 570 656 40,000  Level Jacksonville Center
Tue 11:04:09 AM 30.7325 -81.1381 189° South 570 656 40,000  Level Jacksonville Center
Tue 11:05:09 AM 30.5781 -81.1433 182° South 570 656 40,000  Level Jacksonville Center
Tue 11:06:09 AM 30.4294 -81.1050 167° South 554 638 40,000  Level Jacksonville Center
Tue 11:07:09 AM 30.2764 -81.0669 168° South 554 638 40,000  Level Jacksonville Center
Tue 11:08:09 AM 30.1256 -81.0289 168° South 560 644 40,000  Level Jacksonville Center
Tue 11:09:09 AM 29.9789 -80.9936 168° South 560 644 40,000  Level Jacksonville Center
Tue 11:10:09 AM 29.8217 -80.9533 167° South 544 626 40,000  Level Jacksonville Center
Tue 11:11:09 AM 29.6750 -80.9206 169° South 538 619 40,000  Level Jacksonville Center
Tue 11:12:09 AM 29.5325 -80.8853 168° South 532 612 40,000  Level Jacksonville Center
Tue 11:13:09 AM 29.3900 -80.8500 168° South 527 606 40,000  Level Jacksonville Center
Tue 11:13:42 AM 29.3139 -80.8306 167° South 528 608 40,000 -1,097 Level Miami Center
Tue 11:14:42 AM 29.1750 -80.7944 167° South 528 608 38,300 -2,000 Descending Miami Center
Tue 11:15:42 AM 29.0467 -80.7639 168° South 528 608 36,000 -1,150 Descending Miami Center
Tue 11:16:42 AM 28.9039 -80.7161 164° South 528 608 36,000  Level Miami Center
Tue 11:17:42 AM 28.7492 -80.6586 162° South 534 615 36,000 -350 Level Miami Center
Tue 11:18:42 AM 28.6086 -80.6067 162° South 534 615 35,300 -1,050 Descending Miami Center
Tue 11:19:42 AM 28.4658 -80.5547 162° South 534 615 33,900 -1,750 Descending Miami Center
Tue 11:20:42 AM 28.3400 -80.5056 161° South 534 615 31,800 -2,700 Descending Miami Center
Tue 11:21:42 AM 28.2075 -80.4589 163° South 515 593 28,500 -3,550 Descending Miami Center
Tue 11:22:42 AM 28.0669 -80.4097 163° South 486 559 24,700 -3,200 Descending Miami Center
Tue 11:23:42 AM 27.9428 -80.3611 161° South 478 550 22,100 -2,500 Descending Miami Center
Tue 11:24:42 AM 27.8206 -80.3200 163° South 473 544 19,700 -2,300 Descending Miami Center
Tue 11:25:42 AM 27.7150 -80.2792 161° South 456 525 17,500 -2,350 Descending Miami Center
Tue 11:26:42 AM 27.6014 -80.2383 162° South 440 506 15,000 -2,650 Descending Miami Center
Tue 11:27:42 AM 27.4811 -80.1950 162° South 419 482 12,200 -2,150 Descending Miami Center
Tue 11:28:42 AM 27.3858 -80.1617 163° South 384 442 10,700 -1,050 Descending Miami Center
Tue 11:29:42 AM 27.3050 -80.1339 163° South 325 374 10,100 -700 Descending Miami Center
Tue 11:30:42 AM 27.2344 -80.1225 172° South 290 334 9,300 -1,300 Descending Miami Center
Tue 11:31:42 AM 27.1619 -80.0878 157° South 277 319 7,500 -1,600 Descending Miami Center
Tue 11:32:42 AM 27.0856 -80.0506 157° South 277 319 6,100 -700 Descending Miami Center
Tue 11:33:42 AM 27.0175 -80.0139 154° Southeast 277 319 6,100  Level Miami Center
Tue 11:34:42 AM 26.9447 -79.9956 167° South 265 305 6,100 -50 Level Miami Center
Tue 11:35:42 AM 26.8853 -80.0428 215° Southwest 252 290 6,000 -200 Descending Miami Center
Tue 11:36:42 AM 26.8258 -80.0925 217° Southwest 257 296 5,700 -300 Descending Miami Center
Tue 11:38:00 AM 26.6832 -80.0956 265° West  Level Estimated
Tue 11:45:00 AM 26.6832 -80.0956 110° East  Level Estimated
Tue 11:46:00 AM 26.6832 -80.0956 110° East  Level Estimated
Tue 11:47:00 AM 26.6832 -80.0956 110° East  Level Estimated
Tue 11:48:00 AM 26.6832 -80.0956 110° East  Level Estimated
Tue 11:49:00 AM 26.6832 -80.0956 110° East  Level Estimated
Tue 11:50:00 AM 26.6832 -80.0956 110° East  Level Estimated
Tue 11:51:00 AM 26.6832 -80.0956 110° East  Level Estimated
Tue 11:52:00 AM 26.6832 -80.0956 110° East  Level Estimated
Tue 11:53:00 AM 26.6832 -80.0956 110° East  Level Estimated

Login

Don't have an account? Register now (free) for customized features, flight alerts, and more!